sensor_id;sensor_type;location;lat;lon;timestamp;P1;durP1;ratioP1;P2;durP2;ratioP2
15297;SDS011;7750;48.796;9.026;2023-06-01T00:04:12;4.27;;;2.77;;
15297;SDS011;7750;48.796;9.026;2023-06-01T00:09:13;6.03;;;3.07;;
15297;SDS011;7750;48.796;9.026;2023-06-01T00:19:50;7.87;;;3.97;;
15297;SDS011;7750;48.796;9.026;2023-06-01T00:24:52;6.60;;;3.60;;
15297;SDS011;7750;48.796;9.026;2023-06-01T00:29:53;4.70;;;3.00;;
15297;SDS011;7750;48.796;9.026;2023-06-01T00:34:54;4.87;;;3.57;;
15297;SDS011;7750;48.796;9.026;2023-06-01T00:39:54;4.77;;;2.87;;
15297;SDS011;7750;48.796;9.026;2023-06-01T00:44:55;4.10;;;2.70;;
15297;SDS011;7750;48.796;9.026;2023-06-01T00:49:58;4.83;;;3.10;;
15297;SDS011;7750;48.796;9.026;2023-06-01T00:54:59;5.90;;;3.40;;
15297;SDS011;7750;48.796;9.026;2023-06-01T01:00:01;5.23;;;3.10;;
15297;SDS011;7750;48.796;9.026;2023-06-01T01:05:09;5.57;;;3.30;;
15297;SDS011;7750;48.796;9.026;2023-06-01T01:15:21;5.00;;;3.00;;
15297;SDS011;7750;48.796;9.026;2023-06-01T01:20:41;4.10;;;2.80;;
15297;SDS011;7750;48.796;9.026;2023-06-01T01:31:04;7.83;;;4.20;;
15297;SDS011;7750;48.796;9.026;2023-06-01T01:36:06;3.80;;;2.60;;
15297;SDS011;7750;48.796;9.026;2023-06-01T01:41:08;6.27;;;2.73;;
15297;SDS011;7750;48.796;9.026;2023-06-01T01:51:29;6.07;;;3.10;;
15297;SDS011;7750;48.796;9.026;2023-06-01T01:56:37;5.63;;;3.00;;
15297;SDS011;7750;48.796;9.026;2023-06-01T02:01:38;5.30;;;3.43;;
15297;SDS011;7750;48.796;9.026;2023-06-01T02:06:44;5.57;;;3.13;;
15297;SDS011;7750;48.796;9.026;2023-06-01T02:11:45;9.67;;;3.00;;
15297;SDS011;7750;48.796;9.026;2023-06-01T02:16:45;7.80;;;2.70;;
15297;SDS011;7750;48.796;9.026;2023-06-01T02:21:46;7.30;;;3.30;;
15297;SDS011;7750;48.796;9.026;2023-06-01T02:26:47;5.10;;;3.03;;
15297;SDS011;7750;48.796;9.026;2023-06-01T02:31:51;4.73;;;2.77;;
15297;SDS011;7750;48.796;9.026;2023-06-01T02:36:52;4.33;;;2.73;;
15297;SDS011;7750;48.796;9.026;2023-06-01T02:41:55;5.50;;;3.27;;
15297;SDS011;7750;48.796;9.026;2023-06-01T02:46:56;5.30;;;2.93;;
15297;SDS011;7750;48.796;9.026;2023-06-01T02:51:56;6.67;;;3.50;;
15297;SDS011;7750;48.796;9.026;2023-06-01T02:56:57;5.40;;;3.40;;
15297;SDS011;7750;48.796;9.026;2023-06-01T03:01:57;4.80;;;2.93;;
15297;SDS011;7750;48.796;9.026;2023-06-01T03:06:58;5.27;;;3.23;;
15297;SDS011;7750;48.796;9.026;2023-06-01T03:12:01;8.40;;;3.50;;
15297;SDS011;7750;48.796;9.026;2023-06-01T03:17:02;12.83;;;4.07;;
15297;SDS011;7750;48.796;9.026;2023-06-01T03:22:02;6.70;;;3.53;;
15297;SDS011;7750;48.796;9.026;2023-06-01T03:27:03;6.23;;;3.80;;
15297;SDS011;7750;48.796;9.026;2023-06-01T03:32:04;6.33;;;3.67;;
15297;SDS011;7750;48.796;9.026;2023-06-01T03:37:06;5.27;;;3.37;;
15297;SDS011;7750;48.796;9.026;2023-06-01T03:42:07;6.30;;;3.47;;
15297;SDS011;7750;48.796;9.026;2023-06-01T03:47:08;4.77;;;3.47;;
15297;SDS011;7750;48.796;9.026;2023-06-01T03:52:09;5.20;;;3.17;;
15297;SDS011;7750;48.796;9.026;2023-06-01T03:57:09;4.40;;;2.60;;
15297;SDS011;7750;48.796;9.026;2023-06-01T04:02:10;4.80;;;3.23;;
15297;SDS011;7750;48.796;9.026;2023-06-01T04:07:11;15.53;;;4.17;;
15297;SDS011;7750;48.796;9.026;2023-06-01T04:12:18;4.67;;;2.90;;
15297;SDS011;7750;48.796;9.026;2023-06-01T04:17:19;5.30;;;3.60;;
15297;SDS011;7750;48.796;9.026;2023-06-01T04:22:20;5.77;;;3.60;;
15297;SDS011;7750;48.796;9.026;2023-06-01T04:27:21;7.37;;;3.90;;
15297;SDS011;7750;48.796;9.026;2023-06-01T04:32:24;5.93;;;3.33;;
15297;SDS011;7750;48.796;9.026;2023-06-01T04:37:27;4.20;;;3.00;;
15297;SDS011;7750;48.796;9.026;2023-06-01T04:42:29;4.40;;;3.33;;
15297;SDS011;7750;48.796;9.026;2023-06-01T04:47:30;5.83;;;3.60;;
15297;SDS011;7750;48.796;9.026;2023-06-01T04:52:31;6.63;;;2.90;;
15297;SDS011;7750;48.796;9.026;2023-06-01T04:57:33;7.33;;;3.30;;
15297;SDS011;7750;48.796;9.026;2023-06-01T05:02:35;5.03;;;3.53;;
15297;SDS011;7750;48.796;9.026;2023-06-01T05:07:37;9.90;;;3.83;;
15297;SDS011;7750;48.796;9.026;2023-06-01T05:12:39;5.10;;;3.20;;
15297;SDS011;7750;48.796;9.026;2023-06-01T05:17:39;13.33;;;4.83;;
15297;SDS011;7750;48.796;9.026;2023-06-01T05:22:40;5.87;;;4.20;;
15297;SDS011;7750;48.796;9.026;2023-06-01T05:27:41;5.70;;;3.77;;
15297;SDS011;7750;48.796;9.026;2023-06-01T05:32:42;4.90;;;3.50;;
15297;SDS011;7750;48.796;9.026;2023-06-01T05:37:42;7.67;;;4.20;;
15297;SDS011;7750;48.796;9.026;2023-06-01T05:42:43;5.90;;;3.17;;
15297;SDS011;7750;48.796;9.026;2023-06-01T05:47:44;7.33;;;3.77;;
15297;SDS011;7750;48.796;9.026;2023-06-01T05:52:44;6.37;;;3.67;;
15297;SDS011;7750;48.796;9.026;2023-06-01T05:57:45;7.70;;;4.53;;
15297;SDS011;7750;48.796;9.026;2023-06-01T06:02:46;7.60;;;4.00;;
15297;SDS011;7750;48.796;9.026;2023-06-01T06:07:46;5.80;;;4.00;;
15297;SDS011;7750;48.796;9.026;2023-06-01T06:12:47;7.17;;;4.37;;
15297;SDS011;7750;48.796;9.026;2023-06-01T06:17:47;8.17;;;4.53;;
15297;SDS011;7750;48.796;9.026;2023-06-01T06:22:51;6.40;;;3.57;;
15297;SDS011;7750;48.796;9.026;2023-06-01T06:27:53;8.30;;;3.50;;
15297;SDS011;7750;48.796;9.026;2023-06-01T06:32:57;19.17;;;4.40;;
15297;SDS011;7750;48.796;9.026;2023-06-01T06:37:58;7.70;;;2.77;;
15297;SDS011;7750;48.796;9.026;2023-06-01T06:42:59;4.80;;;2.63;;
15297;SDS011;7750;48.796;9.026;2023-06-01T06:48:00;7.90;;;3.30;;
15297;SDS011;7750;48.796;9.026;2023-06-01T06:53:00;9.70;;;3.43;;
15297;SDS011;7750;48.796;9.026;2023-06-01T06:58:01;12.67;;;3.87;;
15297;SDS011;7750;48.796;9.026;2023-06-01T07:03:02;8.50;;;3.43;;
15297;SDS011;7750;48.796;9.026;2023-06-01T07:08:03;7.20;;;3.00;;
15297;SDS011;7750;48.796;9.026;2023-06-01T07:13:03;6.40;;;3.50;;
15297;SDS011;7750;48.796;9.026;2023-06-01T07:18:04;10.80;;;3.60;;
15297;SDS011;7750;48.796;9.026;2023-06-01T07:23:05;5.13;;;3.80;;
15297;SDS011;7750;48.796;9.026;2023-06-01T07:28:06;7.80;;;3.27;;
15297;SDS011;7750;48.796;9.026;2023-06-01T07:33:07;7.23;;;3.60;;
15297;SDS011;7750;48.796;9.026;2023-06-01T07:38:08;9.73;;;3.97;;
15297;SDS011;7750;48.796;9.026;2023-06-01T07:43:09;9.63;;;3.97;;
15297;SDS011;7750;48.796;9.026;2023-06-01T07:48:09;6.40;;;3.57;;
15297;SDS011;7750;48.796;9.026;2023-06-01T07:53:11;6.00;;;3.40;;
15297;SDS011;7750;48.796;9.026;2023-06-01T07:58:11;5.90;;;4.00;;
15297;SDS011;7750;48.796;9.026;2023-06-01T08:03:12;12.00;;;3.97;;
15297;SDS011;7750;48.796;9.026;2023-06-01T08:08:12;5.33;;;4.00;;
15297;SDS011;7750;48.796;9.026;2023-06-01T08:13:14;9.93;;;4.40;;
15297;SDS011;7750;48.796;9.026;2023-06-01T08:18:15;6.70;;;3.83;;
15297;SDS011;7750;48.796;9.026;2023-06-01T08:23:16;7.40;;;4.50;;
15297;SDS011;7750;48.796;9.026;2023-06-01T08:28:17;7.40;;;4.83;;
15297;SDS011;7750;48.796;9.026;2023-06-01T08:33:17;10.57;;;4.47;;
15297;SDS011;7750;48.796;9.026;2023-06-01T08:38:18;15.83;;;5.80;;
15297;SDS011;7750;48.796;9.026;2023-06-01T08:43:20;8.03;;;4.30;;
15297;SDS011;7750;48.796;9.026;2023-06-01T08:48:20;9.33;;;4.20;;
15297;SDS011;7750;48.796;9.026;2023-06-01T08:53:22;7.30;;;4.57;;
15297;SDS011;7750;48.796;9.026;2023-06-01T08:58:23;9.00;;;5.43;;
15297;SDS011;7750;48.796;9.026;2023-06-01T09:03:25;9.02;;;4.60;;
15297;SDS011;7750;48.796;9.026;2023-06-01T09:08:26;10.63;;;5.50;;
15297;SDS011;7750;48.796;9.026;2023-06-01T09:13:30;7.10;;;4.90;;
15297;SDS011;7750;48.796;9.026;2023-06-01T09:18:35;8.30;;;5.07;;
15297;SDS011;7750;48.796;9.026;2023-06-01T09:23:36;7.77;;;5.00;;
15297;SDS011;7750;48.796;9.026;2023-06-01T09:28:59;8.80;;;4.53;;
15297;SDS011;7750;48.796;9.026;2023-06-01T09:33:59;6.93;;;4.23;;
15297;SDS011;7750;48.796;9.026;2023-06-01T09:39:02;7.20;;;4.63;;
15297;SDS011;7750;48.796;9.026;2023-06-01T09:44:11;7.00;;;4.70;;
15297;SDS011;7750;48.796;9.026;2023-06-01T09:49:17;8.50;;;4.50;;
15297;SDS011;7750;48.796;9.026;2023-06-01T09:54:22;6.57;;;4.67;;
15297;SDS011;7750;48.796;9.026;2023-06-01T09:59:27;7.80;;;5.57;;
15297;SDS011;7750;48.796;9.026;2023-06-01T10:04:28;6.77;;;4.70;;
15297;SDS011;7750;48.796;9.026;2023-06-01T10:09:29;10.70;;;4.70;;
15297;SDS011;7750;48.796;9.026;2023-06-01T10:14:31;10.70;;;5.50;;
15297;SDS011;7750;48.796;9.026;2023-06-01T10:19:32;14.40;;;5.43;;
15297;SDS011;7750;48.796;9.026;2023-06-01T10:24:35;6.87;;;5.10;;
15297;SDS011;7750;48.796;9.026;2023-06-01T10:29:40;9.40;;;5.50;;
15297;SDS011;7750;48.796;9.026;2023-06-01T10:34:43;9.57;;;5.30;;
15297;SDS011;7750;48.796;9.026;2023-06-01T10:39:47;6.30;;;4.90;;
15297;SDS011;7750;48.796;9.026;2023-06-01T10:44:48;9.03;;;5.37;;
15297;SDS011;7750;48.796;9.026;2023-06-01T10:54:50;9.30;;;5.43;;
15297;SDS011;7750;48.796;9.026;2023-06-01T11:00:33;7.57;;;5.23;;
15297;SDS011;7750;48.796;9.026;2023-06-01T11:11:12;7.43;;;5.17;;
15297;SDS011;7750;48.796;9.026;2023-06-01T11:21:19;8.50;;;6.23;;
15297;SDS011;7750;48.796;9.026;2023-06-01T11:26:22;11.50;;;4.90;;
15297;SDS011;7750;48.796;9.026;2023-06-01T11:31:47;11.47;;;5.50;;
15297;SDS011;7750;48.796;9.026;2023-06-01T11:36:49;10.67;;;5.03;;
15297;SDS011;7750;48.796;9.026;2023-06-01T11:42:13;9.30;;;4.83;;
15297;SDS011;7750;48.796;9.026;2023-06-01T11:47:17;6.43;;;4.57;;
15297;SDS011;7750;48.796;9.026;2023-06-01T11:52:18;7.33;;;4.63;;
15297;SDS011;7750;48.796;9.026;2023-06-01T11:57:19;9.37;;;5.70;;
15297;SDS011;7750;48.796;9.026;2023-06-01T12:02:21;8.63;;;5.87;;
15297;SDS011;7750;48.796;9.026;2023-06-01T12:07:26;7.83;;;5.10;;
15297;SDS011;7750;48.796;9.026;2023-06-01T12:12:27;6.93;;;5.60;;
15297;SDS011;7750;48.796;9.026;2023-06-01T12:22:49;6.50;;;5.17;;
15297;SDS011;7750;48.796;9.026;2023-06-01T12:28:03;11.27;;;5.50;;
15297;SDS011;7750;48.796;9.026;2023-06-01T12:33:05;10.80;;;5.93;;
15297;SDS011;7750;48.796;9.026;2023-06-01T12:38:06;7.10;;;5.00;;
15297;SDS011;7750;48.796;9.026;2023-06-01T12:43:19;9.50;;;5.70;;
15297;SDS011;7750;48.796;9.026;2023-06-01T12:48:30;10.63;;;5.87;;
15297;SDS011;7750;48.796;9.026;2023-06-01T12:53:32;13.30;;;4.40;;
15297;SDS011;7750;48.796;9.026;2023-06-01T12:58:33;6.90;;;5.27;;
15297;SDS011;7750;48.796;9.026;2023-06-01T13:03:34;9.73;;;5.43;;
15297;SDS011;7750;48.796;9.026;2023-06-01T13:08:35;10.13;;;5.83;;
15297;SDS011;7750;48.796;9.026;2023-06-01T13:13:35;8.37;;;5.63;;
15297;SDS011;7750;48.796;9.026;2023-06-01T13:18:37;8.23;;;4.93;;
15297;SDS011;7750;48.796;9.026;2023-06-01T13:23:37;7.83;;;5.10;;
15297;SDS011;7750;48.796;9.026;2023-06-01T13:28:38;10.20;;;5.47;;
15297;SDS011;7750;48.796;9.026;2023-06-01T13:33:39;6.93;;;4.63;;
15297;SDS011;7750;48.796;9.026;2023-06-01T13:38:39;10.13;;;4.57;;
15297;SDS011;7750;48.796;9.026;2023-06-01T13:43:40;7.50;;;5.00;;
15297;SDS011;7750;48.796;9.026;2023-06-01T13:48:41;10.20;;;5.03;;
15297;SDS011;7750;48.796;9.026;2023-06-01T13:53:42;6.07;;;4.40;;
15297;SDS011;7750;48.796;9.026;2023-06-01T13:58:42;6.77;;;4.57;;
15297;SDS011;7750;48.796;9.026;2023-06-01T14:03:43;5.97;;;4.50;;
15297;SDS011;7750;48.796;9.026;2023-06-01T14:08:44;6.37;;;4.50;;
15297;SDS011;7750;48.796;9.026;2023-06-01T14:13:45;5.97;;;4.37;;
15297;SDS011;7750;48.796;9.026;2023-06-01T14:18:45;6.80;;;4.53;;
15297;SDS011;7750;48.796;9.026;2023-06-01T14:23:46;5.40;;;3.87;;
15297;SDS011;7750;48.796;9.026;2023-06-01T14:28:47;6.90;;;4.90;;
15297;SDS011;7750;48.796;9.026;2023-06-01T14:33:48;7.13;;;3.60;;
15297;SDS011;7750;48.796;9.026;2023-06-01T14:38:48;5.60;;;3.70;;
15297;SDS011;7750;48.796;9.026;2023-06-01T14:43:49;6.10;;;3.50;;
15297;SDS011;7750;48.796;9.026;2023-06-01T14:48:50;7.63;;;4.33;;
15297;SDS011;7750;48.796;9.026;2023-06-01T14:53:50;8.63;;;4.40;;
15297;SDS011;7750;48.796;9.026;2023-06-01T14:58:51;5.63;;;3.67;;
15297;SDS011;7750;48.796;9.026;2023-06-01T15:03:52;5.03;;;3.23;;
15297;SDS011;7750;48.796;9.026;2023-06-01T15:08:53;6.17;;;2.50;;
15297;SDS011;7750;48.796;9.026;2023-06-01T15:13:54;5.70;;;3.40;;
15297;SDS011;7750;48.796;9.026;2023-06-01T15:18:55;4.07;;;2.97;;
15297;SDS011;7750;48.796;9.026;2023-06-01T15:23:55;5.73;;;2.80;;
15297;SDS011;7750;48.796;9.026;2023-06-01T15:28:56;5.00;;;3.10;;
15297;SDS011;7750;48.796;9.026;2023-06-01T15:33:57;4.83;;;2.80;;
15297;SDS011;7750;48.796;9.026;2023-06-01T15:39:00;3.57;;;2.70;;
15297;SDS011;7750;48.796;9.026;2023-06-01T15:44:02;7.03;;;3.13;;
15297;SDS011;7750;48.796;9.026;2023-06-01T15:49:03;8.67;;;2.97;;
15297;SDS011;7750;48.796;9.026;2023-06-01T15:54:04;5.07;;;2.80;;
15297;SDS011;7750;48.796;9.026;2023-06-01T15:59:05;4.77;;;2.87;;
15297;SDS011;7750;48.796;9.026;2023-06-01T16:04:05;4.50;;;2.73;;
15297;SDS011;7750;48.796;9.026;2023-06-01T16:09:06;6.07;;;2.60;;
15297;SDS011;7750;48.796;9.026;2023-06-01T16:14:07;6.23;;;2.63;;
15297;SDS011;7750;48.796;9.026;2023-06-01T16:19:08;4.10;;;2.80;;
15297;SDS011;7750;48.796;9.026;2023-06-01T16:24:08;5.37;;;2.63;;
15297;SDS011;7750;48.796;9.026;2023-06-01T16:29:09;4.43;;;2.47;;
15297;SDS011;7750;48.796;9.026;2023-06-01T16:34:10;4.00;;;2.37;;
15297;SDS011;7750;48.796;9.026;2023-06-01T16:39:10;4.17;;;2.47;;
15297;SDS011;7750;48.796;9.026;2023-06-01T16:44:12;6.73;;;2.80;;
15297;SDS011;7750;48.796;9.026;2023-06-01T16:49:13;4.40;;;2.30;;
15297;SDS011;7750;48.796;9.026;2023-06-01T16:54:13;4.60;;;2.40;;
15297;SDS011;7750;48.796;9.026;2023-06-01T16:59:14;4.97;;;2.90;;
15297;SDS011;7750;48.796;9.026;2023-06-01T17:04:15;5.07;;;2.40;;
15297;SDS011;7750;48.796;9.026;2023-06-01T17:09:15;4.43;;;2.50;;
15297;SDS011;7750;48.796;9.026;2023-06-01T17:14:16;3.53;;;2.37;;
15297;SDS011;7750;48.796;9.026;2023-06-01T17:19:17;4.07;;;2.27;;
15297;SDS011;7750;48.796;9.026;2023-06-01T17:24:17;3.97;;;2.70;;
15297;SDS011;7750;48.796;9.026;2023-06-01T17:29:18;4.10;;;2.47;;
15297;SDS011;7750;48.796;9.026;2023-06-01T17:34:18;6.33;;;2.87;;
15297;SDS011;7750;48.796;9.026;2023-06-01T17:39:19;3.33;;;2.50;;
15297;SDS011;7750;48.796;9.026;2023-06-01T17:44:21;3.43;;;2.20;;
15297;SDS011;7750;48.796;9.026;2023-06-01T17:49:22;6.20;;;2.70;;
15297;SDS011;7750;48.796;9.026;2023-06-01T17:54:23;3.37;;;2.47;;
15297;SDS011;7750;48.796;9.026;2023-06-01T17:59:23;3.63;;;2.20;;
15297;SDS011;7750;48.796;9.026;2023-06-01T18:04:24;5.50;;;2.50;;
15297;SDS011;7750;48.796;9.026;2023-06-01T18:09:25;6.13;;;2.40;;
15297;SDS011;7750;48.796;9.026;2023-06-01T18:14:26;4.70;;;2.87;;
15297;SDS011;7750;48.796;9.026;2023-06-01T18:19:26;3.53;;;2.10;;
15297;SDS011;7750;48.796;9.026;2023-06-01T18:24:27;4.57;;;2.53;;
15297;SDS011;7750;48.796;9.026;2023-06-01T18:29:28;3.90;;;2.70;;
15297;SDS011;7750;48.796;9.026;2023-06-01T18:34:28;7.53;;;2.60;;
15297;SDS011;7750;48.796;9.026;2023-06-01T18:39:29;4.90;;;2.77;;
15297;SDS011;7750;48.796;9.026;2023-06-01T18:44:29;3.80;;;2.53;;
15297;SDS011;7750;48.796;9.026;2023-06-01T18:49:30;4.17;;;2.77;;
15297;SDS011;7750;48.796;9.026;2023-06-01T18:54:32;5.07;;;2.70;;
15297;SDS011;7750;48.796;9.026;2023-06-01T18:59:33;5.43;;;2.87;;
15297;SDS011;7750;48.796;9.026;2023-06-01T19:04:37;5.60;;;2.97;;
15297;SDS011;7750;48.796;9.026;2023-06-01T19:09:40;4.27;;;2.80;;
15297;SDS011;7750;48.796;9.026;2023-06-01T19:14:41;3.90;;;3.07;;
15297;SDS011;7750;48.796;9.026;2023-06-01T19:19:41;11.60;;;8.93;;
15297;SDS011;7750;48.796;9.026;2023-06-01T19:24:42;18.43;;;11.50;;
15297;SDS011;7750;48.796;9.026;2023-06-01T19:29:43;9.60;;;4.10;;
15297;SDS011;7750;48.796;9.026;2023-06-01T19:34:44;8.70;;;3.87;;
15297;SDS011;7750;48.796;9.026;2023-06-01T19:39:44;4.77;;;3.17;;
15297;SDS011;7750;48.796;9.026;2023-06-01T19:44:47;5.43;;;3.50;;
15297;SDS011;7750;48.796;9.026;2023-06-01T19:49:48;6.18;;;2.92;;
15297;SDS011;7750;48.796;9.026;2023-06-01T19:54:48;7.53;;;3.10;;
15297;SDS011;7750;48.796;9.026;2023-06-01T19:59:49;8.73;;;2.93;;
15297;SDS011;7750;48.796;9.026;2023-06-01T20:04:51;5.80;;;3.07;;
15297;SDS011;7750;48.796;9.026;2023-06-01T20:09:52;5.00;;;2.70;;
15297;SDS011;7750;48.796;9.026;2023-06-01T20:14:53;6.17;;;2.50;;
15297;SDS011;7750;48.796;9.026;2023-06-01T20:19:53;3.63;;;2.73;;
15297;SDS011;7750;48.796;9.026;2023-06-01T20:24:54;4.30;;;3.00;;
15297;SDS011;7750;48.796;9.026;2023-06-01T20:29:55;3.70;;;2.97;;
15297;SDS011;7750;48.796;9.026;2023-06-01T20:34:59;9.23;;;3.17;;
15297;SDS011;7750;48.796;9.026;2023-06-01T20:40:00;5.07;;;3.27;;
15297;SDS011;7750;48.796;9.026;2023-06-01T20:45:00;4.73;;;2.87;;
15297;SDS011;7750;48.796;9.026;2023-06-01T20:50:01;6.00;;;3.10;;
15297;SDS011;7750;48.796;9.026;2023-06-01T20:55:02;6.17;;;3.30;;
15297;SDS011;7750;48.796;9.026;2023-06-01T21:00:03;4.40;;;3.00;;
15297;SDS011;7750;48.796;9.026;2023-06-01T21:05:05;6.97;;;3.20;;
15297;SDS011;7750;48.796;9.026;2023-06-01T21:10:06;4.30;;;2.63;;
15297;SDS011;7750;48.796;9.026;2023-06-01T21:15:07;4.40;;;2.43;;
15297;SDS011;7750;48.796;9.026;2023-06-01T21:20:08;4.80;;;3.53;;
15297;SDS011;7750;48.796;9.026;2023-06-01T21:25:09;4.00;;;2.50;;
15297;SDS011;7750;48.796;9.026;2023-06-01T21:30:10;4.50;;;3.00;;
15297;SDS011;7750;48.796;9.026;2023-06-01T21:35:11;5.30;;;2.90;;
15297;SDS011;7750;48.796;9.026;2023-06-01T21:40:11;5.40;;;3.00;;
15297;SDS011;7750;48.796;9.026;2023-06-01T21:45:12;3.87;;;2.70;;
15297;SDS011;7750;48.796;9.026;2023-06-01T21:50:13;10.00;;;3.37;;
15297;SDS011;7750;48.796;9.026;2023-06-01T21:55:14;5.67;;;2.90;;
15297;SDS011;7750;48.796;9.026;2023-06-01T22:00:15;5.33;;;3.57;;
15297;SDS011;7750;48.796;9.026;2023-06-01T22:05:16;5.00;;;3.53;;
15297;SDS011;7750;48.796;9.026;2023-06-01T22:10:16;5.60;;;3.40;;
15297;SDS011;7750;48.796;9.026;2023-06-01T22:15:17;7.50;;;3.57;;
15297;SDS011;7750;48.796;9.026;2023-06-01T22:20:18;5.50;;;3.70;;
15297;SDS011;7750;48.796;9.026;2023-06-01T22:25:22;8.30;;;3.43;;
15297;SDS011;7750;48.796;9.026;2023-06-01T22:30:22;6.93;;;4.30;;
15297;SDS011;7750;48.796;9.026;2023-06-01T22:35:23;5.80;;;4.03;;
15297;SDS011;7750;48.796;9.026;2023-06-01T22:40:24;5.80;;;3.70;;
15297;SDS011;7750;48.796;9.026;2023-06-01T22:45:25;4.67;;;3.00;;
15297;SDS011;7750;48.796;9.026;2023-06-01T22:50:27;5.47;;;3.90;;
15297;SDS011;7750;48.796;9.026;2023-06-01T22:55:27;5.50;;;3.90;;
15297;SDS011;7750;48.796;9.026;2023-06-01T23:00:28;6.73;;;3.57;;
15297;SDS011;7750;48.796;9.026;2023-06-01T23:05:29;6.03;;;3.43;;
15297;SDS011;7750;48.796;9.026;2023-06-01T23:10:39;10.53;;;4.43;;
15297;SDS011;7750;48.796;9.026;2023-06-01T23:15:49;8.10;;;5.13;;
15297;SDS011;7750;48.796;9.026;2023-06-01T23:20:49;6.00;;;4.23;;
15297;SDS011;7750;48.796;9.026;2023-06-01T23:25:52;6.83;;;3.70;;
15297;SDS011;7750;48.796;9.026;2023-06-01T23:30:53;5.27;;;3.80;;
15297;SDS011;7750;48.796;9.026;2023-06-01T23:35:54;7.53;;;5.07;;
15297;SDS011;7750;48.796;9.026;2023-06-01T23:40:55;6.00;;;3.97;;
15297;SDS011;7750;48.796;9.026;2023-06-01T23:45:56;6.70;;;3.93;;
15297;SDS011;7750;48.796;9.026;2023-06-01T23:50:58;6.33;;;4.30;;
15297;SDS011;7750;48.796;9.026;2023-06-01T23:56:01;9.53;;;4.60;;
